createdAt,value
2018-02-17T00:01:22.856Z,23.84
2018-02-17T00:03:51.189Z,23.74
2018-02-17T00:06:20.568Z,23.70
2018-02-17T00:08:49.866Z,23.61
2018-02-17T00:11:18.560Z,23.58
2018-02-17T00:13:47.708Z,23.51
2018-02-17T00:16:16.733Z,23.45
2018-02-17T00:18:46.404Z,23.59
2018-02-17T00:21:15.780Z,24.25
2018-02-17T00:23:45.362Z,24.61
2018-02-17T00:26:14.492Z,24.84
2018-02-17T00:28:43.795Z,24.79
2018-02-17T00:31:12.691Z,24.43
2018-02-17T00:33:41.884Z,24.14
2018-02-17T00:36:10.644Z,23.96
2018-02-17T00:38:39.728Z,23.88
2018-02-17T00:41:08.766Z,23.71
2018-02-17T00:43:37.776Z,23.59
2018-02-17T00:46:06.720Z,23.49
2018-02-17T00:48:36.385Z,23.42
2018-02-17T00:51:05.724Z,23.41
2018-02-17T00:53:34.877Z,23.40
2018-02-17T00:56:03.882Z,23.55
2018-02-17T00:58:32.358Z,24.35
2018-02-17T01:01:01.692Z,24.56
2018-02-17T01:03:30.774Z,24.82
2018-02-17T01:05:59.691Z,24.91
2018-02-17T01:08:29.432Z,24.55
2018-02-17T01:10:58.814Z,24.18
2018-02-17T01:16:13.884Z,23.80
2018-02-17T01:18:43.420Z,23.73
2018-02-17T01:21:13.176Z,23.60
2018-02-17T01:23:41.805Z,23.52
2018-02-17T01:26:11.335Z,23.48
2018-02-17T01:28:40.778Z,23.40
2018-02-17T01:31:10.391Z,23.46
2018-02-17T01:33:39.903Z,24.18
2018-02-17T01:38:11.537Z,24.59
2018-02-17T01:40:41.446Z,24.95
2018-02-17T01:43:11.357Z,24.49
2018-02-17T01:45:41.490Z,24.07
2018-02-17T01:48:11.496Z,23.87
2018-02-17T01:50:42.033Z,23.73
2018-02-17T01:53:10.813Z,23.59
2018-02-17T01:55:40.511Z,23.50
2018-02-17T01:58:10.358Z,23.48
2018-02-17T02:00:40.235Z,23.47
2018-02-17T02:03:10.207Z,23.46
2018-02-17T02:05:39.745Z,23.45
2018-02-17T02:08:08.896Z,23.40
2018-02-17T02:10:38.080Z,23.37
2018-02-17T02:13:07.467Z,23.66
2018-02-17T02:15:37.396Z,24.33
2018-02-17T02:20:52.846Z,25.00
2018-02-17T02:23:22.500Z,24.77
2018-02-17T02:25:51.822Z,24.25
2018-02-17T02:28:21.418Z,23.99
2018-02-17T02:30:50.730Z,23.81
2018-02-17T02:33:20.262Z,23.69
2018-02-17T02:35:49.911Z,23.59
2018-02-17T02:38:18.964Z,23.47
2018-02-17T02:40:47.713Z,23.41
2018-02-17T02:43:17.243Z,23.34
2018-02-17T02:45:46.802Z,23.35
2018-02-17T02:48:16.193Z,24.07
2018-02-17T02:50:45.919Z,24.37
2018-02-17T02:53:14.395Z,24.72
2018-02-17T02:58:29.684Z,24.36
2018-02-17T03:00:58.925Z,24.00
2018-02-17T03:03:27.602Z,23.85
2018-02-17T03:05:56.833Z,23.74
2018-02-17T03:08:26.223Z,23.67
2018-02-17T03:10:55.821Z,23.58
2018-02-17T03:13:25.504Z,23.48
2018-02-17T03:15:55.428Z,23.41
2018-02-17T03:18:25.432Z,23.30
2018-02-17T03:20:55.445Z,23.28
2018-02-17T03:23:25.282Z,23.57
2018-02-17T03:28:06.960Z,24.40
2018-02-17T03:30:35.890Z,24.56
2018-02-17T03:33:05.648Z,24.79
2018-02-17T03:35:35.163Z,24.13
2018-02-17T03:38:04.271Z,23.82
2018-02-17T03:40:33.741Z,23.65
2018-02-17T03:43:03.380Z,23.51
2018-02-17T03:45:32.657Z,23.41
2018-02-17T03:48:02.364Z,23.31
2018-02-17T03:50:31.822Z,23.25
2018-02-17T03:53:01.245Z,23.23
2018-02-17T03:55:30.776Z,23.21
2018-02-17T03:57:59.903Z,23.21
2018-02-17T04:00:29.552Z,23.81
2018-02-17T04:02:58.932Z,24.28
2018-02-17T04:05:27.747Z,24.55
2018-02-17T04:07:57.505Z,24.83
2018-02-17T04:10:26.777Z,24.49
2018-02-17T04:12:55.928Z,24.11
2018-02-17T04:15:24.496Z,23.90
2018-02-17T04:17:53.724Z,23.77
2018-02-17T04:20:23.346Z,23.66
2018-02-17T04:26:39.912Z,23.49
2018-02-17T04:29:08.904Z,23.42
2018-02-17T04:31:38.042Z,23.37
2018-02-17T04:34:06.843Z,24.03
2018-02-17T04:36:36.527Z,24.33
2018-02-17T04:39:06.209Z,24.67
2018-02-17T04:44:49.782Z,24.26
2018-02-17T04:47:21.503Z,23.91
2018-02-17T05:00:20.676Z,23.46
2018-02-17T05:02:55.709Z,23.46
2018-02-17T05:05:26.914Z,23.43
2018-02-17T05:07:57.709Z,23.44
2018-02-17T05:10:27.329Z,23.73
2018-02-17T05:12:56.919Z,24.35
2018-02-17T05:15:27.689Z,24.58
2018-02-17T05:27:10.760Z,24.00
2018-02-17T05:29:40.239Z,23.84
2018-02-17T05:32:12.664Z,23.73
2018-02-17T05:39:18.399Z,23.32
2018-02-17T05:41:53.735Z,23.37
2018-02-17T05:44:36.475Z,23.58
2018-02-17T05:47:06.491Z,24.26
2018-02-17T05:49:36.618Z,24.43
2018-02-17T05:52:06.194Z,24.52
2018-02-17T05:54:55.921Z,24.52
2018-02-17T05:57:24.409Z,24.08
2018-02-17T05:59:53.720Z,23.89
2018-02-17T06:02:23.481Z,23.74
2018-02-17T06:04:53.224Z,23.63
2018-02-17T06:07:22.312Z,23.60
2018-02-17T06:09:51.791Z,23.62
2018-02-17T06:12:21.206Z,23.58
2018-02-17T06:14:50.634Z,23.52
2018-02-17T06:20:01.745Z,23.57
2018-02-17T06:22:31.396Z,24.26
2018-02-17T06:25:01.257Z,24.61
2018-02-17T06:27:30.824Z,24.84
2018-02-17T06:30:00.439Z,24.98
2018-02-17T06:32:30.445Z,24.91
2018-02-17T06:34:59.892Z,24.27
2018-02-17T06:37:29.532Z,24.02
2018-02-17T06:39:59.227Z,23.84
2018-02-17T06:42:29.330Z,23.74
2018-02-17T06:44:59.493Z,23.66
2018-02-17T06:48:30.525Z,23.61
2018-02-17T06:51:00.222Z,23.51
2018-02-17T06:53:29.701Z,23.58
2018-02-17T06:55:59.181Z,23.87
2018-02-17T06:58:28.663Z,24.46
2018-02-17T07:00:57.860Z,24.86
2018-02-17T07:03:26.892Z,24.93
2018-02-17T07:05:56.253Z,24.82
2018-02-17T07:08:25.814Z,24.36
2018-02-17T07:10:55.242Z,24.18
2018-02-17T07:13:24.641Z,24.07
2018-02-17T07:15:53.736Z,23.85
2018-02-17T07:21:01.513Z,23.72
2018-02-17T07:23:30.782Z,23.78
2018-02-17T07:26:00.002Z,23.28
2018-02-17T07:29:40.862Z,22.92
2018-02-17T07:32:10.405Z,23.96
2018-02-17T07:34:39.750Z,24.39
2018-02-17T07:38:10.049Z,24.67
2018-02-17T07:40:39.706Z,25.06
2018-02-17T07:43:08.890Z,24.74
2018-02-17T07:45:37.648Z,24.32
2018-02-17T07:48:06.811Z,24.15
2018-02-17T07:50:35.817Z,24.06
2018-02-17T07:53:04.876Z,24.00
2018-02-17T07:57:56.692Z,23.81
2018-02-17T08:00:25.823Z,23.86
2018-02-17T08:02:55.437Z,23.83
2018-02-17T08:05:24.641Z,23.93
2018-02-17T08:07:53.885Z,23.74
2018-02-17T08:10:22.879Z,23.84
2018-02-17T08:16:01.920Z,24.90
2018-02-17T08:18:30.823Z,25.28
2018-02-17T08:20:59.924Z,25.54
2018-02-17T08:23:28.646Z,25.00
2018-02-17T08:25:57.924Z,24.65
2018-02-17T08:28:26.675Z,24.52
2018-02-17T08:30:56.227Z,24.40
2018-02-17T08:33:25.726Z,24.29
2018-02-17T08:35:55.119Z,24.12
2018-02-17T08:38:24.647Z,23.87
2018-02-17T08:40:53.808Z,23.80
2018-02-17T08:43:22.918Z,23.86
2018-02-17T08:45:51.213Z,24.42
2018-02-17T08:48:20.777Z,24.71
2018-02-17T08:50:49.801Z,24.92
2018-02-17T08:53:18.760Z,25.03
2018-02-17T08:55:47.765Z,24.31
2018-02-17T08:58:16.778Z,24.03
2018-02-17T09:00:45.683Z,23.91
2018-02-17T09:03:14.725Z,23.79
2018-02-17T09:08:28.742Z,23.67
2018-02-17T09:10:57.721Z,23.69
2018-02-17T09:13:26.736Z,23.73
2018-02-17T09:16:52.611Z,23.65
2018-02-17T09:19:21.656Z,23.48
2018-02-17T09:21:50.706Z,24.05
2018-02-17T09:24:19.792Z,24.71
2018-02-17T09:26:48.747Z,24.99
2018-02-17T09:29:17.889Z,25.24
2018-02-17T09:31:46.155Z,24.40
2018-02-17T09:34:15.545Z,24.03
2018-02-17T09:36:44.750Z,23.87
2018-02-17T09:39:13.720Z,23.70
2018-02-17T09:41:43.157Z,23.64
2018-02-17T09:44:12.188Z,23.56
2018-02-17T09:46:41.547Z,23.49
2018-02-17T09:50:50.696Z,23.44
2018-02-17T09:53:19.742Z,24.08
2018-02-17T09:55:48.631Z,24.66
2018-02-17T09:58:17.660Z,24.87
2018-02-17T10:00:46.711Z,24.85
2018-02-17T10:03:15.639Z,24.23
2018-02-17T10:05:44.685Z,24.00
2018-02-17T10:08:13.745Z,23.92
2018-02-17T10:10:42.701Z,23.83
2018-02-17T10:13:11.707Z,23.74
2018-02-17T10:15:40.680Z,23.65
2018-02-17T10:18:09.608Z,23.58
2018-02-17T10:20:38.661Z,23.51
2018-02-17T10:23:07.657Z,23.53
2018-02-17T10:25:36.664Z,23.90
2018-02-17T10:28:05.709Z,24.64
2018-02-17T10:30:34.685Z,24.95
2018-02-17T10:33:04.732Z,25.14
2018-02-17T10:35:33.755Z,24.67
2018-02-17T10:38:02.647Z,24.18
2018-02-17T10:40:31.662Z,23.90
2018-02-17T10:43:00.694Z,23.78
2018-02-17T10:45:29.675Z,23.70
2018-02-17T10:47:58.660Z,23.59
2018-02-17T10:50:27.632Z,23.45
2018-02-17T10:52:56.698Z,23.43
2018-02-17T10:55:31.521Z,23.38
2018-02-17T10:58:50.223Z,23.95
2018-02-17T11:01:19.232Z,24.61
2018-02-17T11:03:48.658Z,24.92
2018-02-17T11:06:17.705Z,25.11
2018-02-17T11:08:46.701Z,24.49
2018-02-17T11:11:15.680Z,24.16
2018-02-17T11:13:44.703Z,24.01
2018-02-17T11:16:13.689Z,23.90
2018-02-17T11:18:42.716Z,23.77
2018-02-17T11:21:11.697Z,23.63
2018-02-17T11:23:40.724Z,23.53
2018-02-17T11:26:09.794Z,23.52
2018-02-17T11:28:38.773Z,23.48
2018-02-17T11:31:07.802Z,23.43
2018-02-17T11:33:36.763Z,23.90
2018-02-17T11:36:05.717Z,24.46
2018-02-17T11:38:34.864Z,24.89
2018-02-17T11:41:03.786Z,25.17
2018-02-17T11:43:32.748Z,24.73
2018-02-17T11:46:02.329Z,24.26
2018-02-17T11:48:31.764Z,24.01
2018-02-17T11:51:01.183Z,23.87
2018-02-17T11:53:29.653Z,23.81
2018-02-17T11:55:58.782Z,23.67
2018-02-17T11:58:27.788Z,23.59
2018-02-17T12:00:56.775Z,23.59
2018-02-17T12:03:25.865Z,23.59
2018-02-17T12:05:54.898Z,23.57
2018-02-17T12:08:23.422Z,23.62
2018-02-17T12:10:52.673Z,23.89
2018-02-17T12:14:36.696Z,24.92
2018-02-17T12:17:29.501Z,25.33
2018-02-17T12:19:58.660Z,25.29
2018-02-17T12:22:27.697Z,24.52
2018-02-17T12:24:57.587Z,24.24
2018-02-17T12:27:26.711Z,24.06
2018-02-17T12:29:55.764Z,23.85
2018-02-17T12:32:24.732Z,23.77
2018-02-17T12:35:58.808Z,23.63
2018-02-17T12:38:27.745Z,23.57
2018-02-17T12:40:56.783Z,23.55
2018-02-17T12:46:05.685Z,23.96
2018-02-17T12:48:34.710Z,24.45
2018-02-17T12:51:03.672Z,25.08
2018-02-17T12:53:32.804Z,25.35
2018-02-17T12:56:01.797Z,24.69
2018-02-17T12:58:30.878Z,24.46
2018-02-17T13:00:58.955Z,24.33
2018-02-17T13:03:27.173Z,24.11
2018-02-17T13:05:56.333Z,24.00
2018-02-17T13:08:25.456Z,23.98
2018-02-17T13:10:54.436Z,23.96
2018-02-17T13:13:23.443Z,24.02
2018-02-17T13:15:52.660Z,23.89
2018-02-17T13:18:21.712Z,23.85
2018-02-17T13:20:50.691Z,23.86
2018-02-17T13:23:19.728Z,23.90
2018-02-17T13:27:12.734Z,24.68
2018-02-17T13:29:42.178Z,25.24
2018-02-17T13:32:11.704Z,25.41
2018-02-17T13:34:40.668Z,25.13
2018-02-17T13:37:09.700Z,24.64
2018-02-17T13:39:38.712Z,24.39
2018-02-17T13:44:43.705Z,24.08
2018-02-17T13:47:12.779Z,23.99
2018-02-17T13:49:41.764Z,23.90
2018-02-17T14:05:39.297Z,25.57
2018-02-17T14:10:43.650Z,24.92
2018-02-17T14:15:12.476Z,24.50
2018-02-17T14:17:41.901Z,24.39
2018-02-17T14:20:10.068Z,24.29
2018-02-17T14:22:38.651Z,24.17
2018-02-17T14:25:07.822Z,24.02
2018-02-17T14:27:37.043Z,23.96
2018-02-17T14:30:06.734Z,23.87
2018-02-17T14:32:36.199Z,23.78
2018-02-17T14:35:05.292Z,23.71
2018-02-17T14:37:34.640Z,23.70
2018-02-17T14:40:03.764Z,24.38
2018-02-17T14:42:32.631Z,24.98
2018-02-17T14:45:01.753Z,25.05
2018-02-17T14:48:36.733Z,24.55
2018-02-17T14:51:05.644Z,24.03
2018-02-17T14:53:34.733Z,23.65
2018-02-17T14:56:03.770Z,23.33
2018-02-17T14:58:32.867Z,23.19
2018-02-17T15:01:02.742Z,23.24
2018-02-17T15:04:44.955Z,23.78
2018-02-17T15:09:03.685Z,23.58
2018-02-17T15:11:32.885Z,23.47
2018-02-17T15:14:01.024Z,23.60
2018-02-17T15:16:29.543Z,24.12
2018-02-17T15:18:58.793Z,24.83
2018-02-17T15:21:27.693Z,25.18
2018-02-17T15:23:56.705Z,25.15
2018-02-17T15:26:26.428Z,24.51
2018-02-17T15:28:55.611Z,24.28
2018-02-17T15:31:24.713Z,24.17
2018-02-17T15:33:53.624Z,24.22
2018-02-17T15:36:22.612Z,24.14
2018-02-17T15:38:51.720Z,24.08
2018-02-17T15:41:21.193Z,24.05
2018-02-17T15:43:50.773Z,24.03
2018-02-17T15:46:19.741Z,24.02
2018-02-17T15:48:48.611Z,23.86
2018-02-17T15:53:17.711Z,23.84
2018-02-17T15:58:31.200Z,25.19
2018-02-17T16:01:00.261Z,25.56
2018-02-17T16:03:29.647Z,24.92
2018-02-17T16:05:58.749Z,24.62
2018-02-17T16:08:27.725Z,24.39
2018-02-17T16:10:56.784Z,24.29
2018-02-17T16:13:25.736Z,24.13
2018-02-17T16:15:55.541Z,23.77
2018-02-17T16:18:24.636Z,23.69
2018-02-17T16:20:53.813Z,23.18
2018-02-17T16:23:22.887Z,23.39
2018-02-17T16:25:51.953Z,23.42
2018-02-17T16:28:20.165Z,23.41
2018-02-17T16:30:50.882Z,23.41
2018-02-17T16:33:19.778Z,23.59
2018-02-17T16:35:49.504Z,24.89
2018-02-17T16:38:18.609Z,25.90
2018-02-17T16:43:30.677Z,25.66
2018-02-17T16:46:02.615Z,24.88
2018-02-17T16:48:33.487Z,24.45
2018-02-17T16:51:02.671Z,24.18
2018-02-17T16:53:33.684Z,24.02
2018-02-17T16:58:44.701Z,23.82
2018-02-17T17:01:13.745Z,23.87
2018-02-17T17:03:42.701Z,24.02
2018-02-17T17:06:11.774Z,24.02
2018-02-17T17:08:41.366Z,23.97
2018-02-17T17:11:10.885Z,23.91
2018-02-17T17:13:39.536Z,23.81
2018-02-17T17:16:09.937Z,23.75
2018-02-17T17:18:38.432Z,23.82
2018-02-17T17:21:07.644Z,23.84
2018-02-17T17:23:36.687Z,23.91
2018-02-17T17:26:05.925Z,24.57
2018-02-17T17:29:03.700Z,25.11
2018-02-17T17:31:32.913Z,25.36
2018-02-17T17:34:01.227Z,24.58
2018-02-17T17:36:30.326Z,24.22
2018-02-17T17:38:59.561Z,24.09
2018-02-17T17:41:28.808Z,23.93
2018-02-17T17:43:57.830Z,23.87
2018-02-17T17:46:26.889Z,23.80
2018-02-17T17:48:56.246Z,23.76
2018-02-17T17:51:25.856Z,23.65
2018-02-17T17:53:55.361Z,23.70
2018-02-17T17:56:24.926Z,23.65
2018-02-17T17:58:53.618Z,23.60
2018-02-17T18:01:23.209Z,24.23
2018-02-17T18:03:52.789Z,24.70
2018-02-17T18:06:21.781Z,25.16
2018-02-17T18:08:51.220Z,25.14
2018-02-17T18:11:21.218Z,24.36
2018-02-17T18:13:50.672Z,24.17
2018-02-17T18:16:20.251Z,24.07
2018-02-17T18:18:49.790Z,24.01
2018-02-17T18:21:18.737Z,23.73
2018-02-17T18:24:49.653Z,23.72
2018-02-17T18:30:13.363Z,23.58
2018-02-17T18:32:43.901Z,23.53
2018-02-17T18:35:12.467Z,23.45
2018-02-17T18:39:45.808Z,23.56
2018-02-17T18:42:14.754Z,24.39
2018-02-17T18:44:43.773Z,24.72
2018-02-17T18:50:00.683Z,24.59
2018-02-17T18:52:29.721Z,24.24
2018-02-17T18:54:58.699Z,24.01
2018-02-17T18:57:27.769Z,23.91
2018-02-17T18:59:56.749Z,23.95
2018-02-17T19:02:25.694Z,23.92
2018-02-17T19:04:56.336Z,23.81
2018-02-17T19:07:25.651Z,23.80
2018-02-17T19:09:54.716Z,23.66
2018-02-17T19:13:21.387Z,23.48
2018-02-17T19:15:50.652Z,23.43
2018-02-17T19:18:19.760Z,23.33
2018-02-17T19:20:49.711Z,23.40
2018-02-17T19:23:18.690Z,24.35
2018-02-17T19:25:47.741Z,24.84
2018-02-17T19:28:17.511Z,25.11
2018-02-17T19:30:46.753Z,24.71
2018-02-17T19:35:04.664Z,23.94
2018-02-17T19:37:33.709Z,23.77
2018-02-17T19:40:02.750Z,23.67
2018-02-17T19:42:31.620Z,23.57
2018-02-17T19:45:00.657Z,23.52
2018-02-17T19:47:29.745Z,23.63
2018-02-17T19:49:58.646Z,23.61
2018-02-17T19:52:27.624Z,23.73
2018-02-17T19:54:56.770Z,23.70
2018-02-17T19:57:25.787Z,23.65
2018-02-17T19:59:54.757Z,23.66
2018-02-17T20:02:23.656Z,23.76
2018-02-17T20:04:52.705Z,24.42
2018-02-17T20:07:21.767Z,24.90
2018-02-17T20:09:55.607Z,25.23
2018-02-17T20:12:24.754Z,24.91
2018-02-17T20:15:00.488Z,24.19
2018-02-17T20:17:31.745Z,23.83
2018-02-17T20:20:00.782Z,23.67
2018-02-17T20:22:29.759Z,23.53
2018-02-17T20:24:58.739Z,23.44
2018-02-17T20:27:27.705Z,23.36
2018-02-17T20:29:56.773Z,23.32
2018-02-17T20:32:25.676Z,23.26
2018-02-17T20:34:54.772Z,23.14
2018-02-17T20:37:23.758Z,23.34
2018-02-17T20:39:52.697Z,23.96
2018-02-17T20:42:21.697Z,24.49
2018-02-17T20:44:50.741Z,24.76
2018-02-17T20:47:19.697Z,24.52
2018-02-17T20:49:48.631Z,24.02
2018-02-17T20:52:17.632Z,23.83
2018-02-17T20:54:46.761Z,23.73
2018-02-17T20:57:15.781Z,23.62
2018-02-17T20:59:44.693Z,23.56
2018-02-17T21:02:13.713Z,23.45
2018-02-17T21:04:42.682Z,23.43
2018-02-17T21:07:11.701Z,23.35
2018-02-17T21:14:03.278Z,24.03
2018-02-17T21:16:32.713Z,24.65
2018-02-17T21:19:02.185Z,24.88
2018-02-17T21:21:31.585Z,25.09
2018-02-17T21:24:00.647Z,24.59
2018-02-17T21:29:34.732Z,23.68
2018-02-17T21:32:03.809Z,23.51
2018-02-17T21:34:32.698Z,23.42
2018-02-17T21:37:01.745Z,23.30
2018-02-17T21:40:27.537Z,23.24
2018-02-17T21:42:56.802Z,23.23
2018-02-17T21:45:25.680Z,23.20
2018-02-17T21:49:48.865Z,23.24
2018-02-17T21:52:17.721Z,24.09
2018-02-17T21:54:46.876Z,24.64
2018-02-17T21:57:15.720Z,25.09
2018-02-17T21:59:44.683Z,25.15
2018-02-17T22:02:13.809Z,24.63
2018-02-17T22:04:46.158Z,23.91
2018-02-17T22:07:15.452Z,23.66
2018-02-17T22:09:44.750Z,23.59
2018-02-17T22:12:13.669Z,23.43
2018-02-17T22:14:42.647Z,23.33
2018-02-17T22:17:11.721Z,23.22
2018-02-17T22:19:40.676Z,23.13
2018-02-17T22:22:09.615Z,23.07
2018-02-17T22:24:38.648Z,23.08
2018-02-17T22:27:07.579Z,23.68
2018-02-17T22:29:36.717Z,24.38
2018-02-17T22:32:05.742Z,24.67
2018-02-17T22:34:34.733Z,24.91
2018-02-17T22:37:03.692Z,24.67
2018-02-17T22:39:32.728Z,23.94
2018-02-17T22:42:01.878Z,23.69
2018-02-17T22:44:30.693Z,23.63
2018-02-17T22:46:59.732Z,23.49
2018-02-17T22:49:28.754Z,23.49
2018-02-17T22:51:57.667Z,23.43
2018-02-17T22:54:26.765Z,23.37
2018-02-17T22:58:39.874Z,23.37
2018-02-17T23:01:09.720Z,23.31
2018-02-17T23:03:38.757Z,23.25
2018-02-17T23:06:07.757Z,23.16
2018-02-17T23:08:36.761Z,24.15
2018-02-17T23:11:05.636Z,24.70
2018-02-17T23:13:34.644Z,25.03
2018-02-17T23:16:03.666Z,25.11
2018-02-17T23:18:32.640Z,24.51
2018-02-17T23:21:01.671Z,23.94
2018-02-17T23:23:30.648Z,23.69
2018-02-17T23:25:59.741Z,23.53
2018-02-17T23:28:28.726Z,23.39
2018-02-17T23:30:57.754Z,23.28
2018-02-17T23:33:26.684Z,23.23
2018-02-17T23:35:55.802Z,23.14
2018-02-17T23:38:25.052Z,23.17
2018-02-17T23:40:53.511Z,23.15
2018-02-17T23:43:22.623Z,23.75
2018-02-17T23:45:51.661Z,24.46
2018-02-17T23:51:00.591Z,24.91
2018-02-17T23:53:29.692Z,24.73
2018-02-17T23:55:58.696Z,24.08
2018-02-17T23:58:27.728Z,23.77
